createdAt,value
2019-02-11T00:01:06.988Z,4.37
2019-02-11T00:03:59.749Z,4.10
2019-02-11T00:06:48.630Z,4.30
2019-02-11T00:09:38.457Z,4.43
2019-02-11T00:12:28.146Z,4.20
2019-02-11T00:15:17.817Z,4.30
2019-02-11T00:18:07.844Z,4.43
2019-02-11T00:20:57.513Z,4.90
2019-02-11T00:23:47.259Z,5.33
2019-02-11T00:26:36.953Z,4.80
2019-02-11T00:29:26.734Z,4.40
2019-02-11T00:35:25.526Z,4.90
2019-02-11T00:38:13.670Z,4.50
2019-02-11T00:41:04.161Z,5.23
2019-02-11T00:44:13.310Z,4.33
2019-02-11T00:50:50.934Z,4.30
2019-02-11T00:53:40.446Z,4.57
2019-02-11T00:56:29.862Z,4.50
2019-02-11T00:59:20.965Z,5.03
2019-02-11T01:02:11.073Z,5.07
2019-02-11T01:05:01.408Z,4.80
2019-02-11T01:07:51.462Z,4.70
2019-02-11T01:10:41.372Z,4.60
2019-02-11T01:13:30.810Z,4.60
2019-02-11T01:16:20.492Z,4.47
2019-02-11T01:19:09.918Z,4.50
2019-02-11T01:22:00.260Z,4.40
2019-02-11T01:24:49.937Z,4.30
2019-02-11T01:27:39.438Z,4.80
2019-02-11T01:30:28.865Z,4.80
2019-02-11T01:33:19.137Z,4.33
2019-02-11T01:36:08.574Z,4.80
2019-02-11T01:38:58.014Z,4.40
2019-02-11T01:41:47.438Z,4.47
2019-02-11T01:44:37.100Z,5.67
2019-02-11T01:47:26.519Z,4.70
2019-02-11T01:50:16.429Z,4.60
2019-02-11T01:53:24.997Z,4.67
2019-02-11T01:56:15.065Z,4.80
2019-02-11T01:59:04.847Z,4.90
2019-02-11T02:01:54.897Z,4.47
2019-02-11T02:04:44.666Z,4.60
2019-02-11T02:07:34.192Z,4.50
2019-02-11T02:10:24.132Z,4.60
2019-02-11T02:13:14.630Z,4.73
2019-02-11T02:16:04.301Z,5.00
2019-02-11T02:18:53.905Z,4.87
2019-02-11T02:21:44.001Z,4.60
2019-02-11T02:24:33.412Z,4.50
2019-02-11T02:29:53.960Z,4.90
2019-02-11T02:32:43.668Z,4.80
2019-02-11T02:35:33.446Z,4.93
2019-02-11T02:38:23.533Z,4.90
2019-02-11T02:41:13.284Z,4.80
2019-02-11T02:44:03.276Z,5.00
2019-02-11T02:46:52.681Z,4.53
2019-02-11T02:49:42.121Z,5.00
2019-02-11T02:52:50.745Z,4.83
2019-02-11T02:55:40.938Z,5.17
2019-02-11T02:59:10.029Z,4.77
2019-02-11T03:02:00.208Z,4.47
2019-02-11T03:04:50.183Z,4.90
2019-02-11T03:07:39.735Z,5.60
2019-02-11T03:10:29.240Z,5.00
2019-02-11T03:13:18.887Z,5.00
2019-02-11T03:16:08.604Z,5.00
2019-02-11T03:18:58.821Z,5.20
2019-02-11T03:21:46.893Z,5.10
2019-02-11T03:24:55.718Z,5.23
2019-02-11T03:27:45.431Z,4.83
2019-02-11T03:30:36.132Z,5.80
2019-02-11T03:33:25.855Z,5.10
2019-02-11T03:36:15.610Z,5.13
2019-02-11T03:39:44.772Z,5.50
2019-02-11T03:42:54.551Z,5.20
2019-02-11T03:48:40.070Z,5.40
2019-02-11T03:51:29.831Z,6.17
2019-02-11T03:54:19.512Z,5.97
2019-02-11T03:57:09.279Z,5.70
2019-02-11T03:59:59.002Z,5.57
2019-02-11T04:02:48.481Z,5.30
2019-02-11T04:05:38.317Z,5.70
2019-02-11T04:08:28.901Z,5.60
2019-02-11T04:11:37.559Z,5.87
2019-02-11T04:14:27.222Z,6.60
2019-02-11T04:17:36.216Z,5.83
2019-02-11T04:20:25.924Z,6.00
2019-02-11T04:23:15.351Z,5.67
2019-02-11T04:26:05.289Z,5.50
2019-02-11T04:28:54.962Z,5.50
2019-02-11T04:31:44.734Z,5.40
2019-02-11T04:34:37.726Z,5.50
2019-02-11T04:37:27.192Z,5.80
2019-02-11T04:40:16.860Z,5.50
2019-02-11T04:43:06.779Z,5.53
2019-02-11T04:45:56.528Z,5.30
2019-02-11T04:48:45.950Z,5.60
2019-02-11T04:51:35.425Z,6.30
2019-02-11T04:54:24.881Z,6.13
2019-02-11T04:57:15.626Z,5.50
2019-02-11T05:00:24.360Z,5.70
2019-02-11T05:03:33.604Z,5.97
2019-02-11T05:06:42.481Z,5.60
2019-02-11T05:09:32.717Z,5.63
2019-02-11T05:12:22.493Z,5.70
2019-02-11T05:15:12.160Z,6.03
2019-02-11T05:18:01.891Z,5.80
2019-02-11T05:21:10.524Z,6.37
2019-02-11T05:24:19.170Z,6.13
2019-02-11T05:27:09.682Z,6.00
2019-02-11T05:29:59.379Z,6.30
2019-02-11T05:32:49.122Z,5.43
2019-02-11T05:35:39.033Z,6.07
2019-02-11T05:38:28.730Z,5.63
2019-02-11T05:41:19.000Z,5.87
2019-02-11T05:44:27.571Z,6.43
2019-02-11T05:47:17.673Z,6.27
2019-02-11T05:50:18.716Z,6.20
2019-02-11T05:53:08.428Z,6.47
2019-02-11T05:55:58.343Z,6.30
2019-02-11T05:58:47.787Z,6.97
2019-02-11T06:01:37.209Z,6.90
2019-02-11T06:04:26.983Z,6.47
2019-02-11T06:07:16.745Z,7.20
2019-02-11T06:10:06.904Z,6.97
2019-02-11T06:12:56.590Z,7.50
2019-02-11T06:16:05.234Z,7.17
2019-02-11T06:18:55.397Z,7.23
2019-02-11T06:24:53.787Z,7.70
2019-02-11T06:28:02.429Z,7.90
2019-02-11T06:31:11.320Z,7.93
2019-02-11T06:34:00.762Z,8.00
2019-02-11T06:36:50.813Z,8.67
2019-02-11T06:39:59.885Z,8.40
2019-02-11T06:42:50.217Z,7.90
2019-02-11T06:45:39.868Z,8.57
2019-02-11T06:48:29.289Z,9.17
2019-02-11T06:51:19.239Z,8.30
2019-02-11T06:54:09.360Z,8.40
2019-02-11T06:57:18.243Z,8.80
2019-02-11T07:00:09.781Z,8.60
2019-02-11T07:02:59.589Z,8.73
2019-02-11T07:05:49.851Z,8.97
2019-02-11T07:08:40.090Z,8.80
2019-02-11T07:11:30.138Z,9.20
2019-02-11T07:14:19.850Z,8.93
2019-02-11T07:17:10.136Z,8.67
2019-02-11T07:20:00.232Z,8.43
2019-02-11T07:22:50.054Z,8.70
2019-02-11T07:25:39.790Z,9.57
2019-02-11T07:28:29.480Z,8.40
2019-02-11T07:31:19.201Z,8.53
2019-02-11T07:34:09.147Z,8.67
2019-02-11T07:36:58.699Z,9.10
2019-02-11T07:39:48.269Z,8.90
2019-02-11T07:42:56.962Z,8.40
2019-02-11T07:46:05.629Z,8.60
2019-02-11T07:48:55.063Z,9.23
2019-02-11T07:51:45.084Z,17.40
2019-02-11T07:54:34.856Z,11.80
2019-02-11T07:57:24.643Z,9.63
2019-02-11T08:00:14.152Z,9.00
2019-02-11T08:03:03.938Z,9.57
2019-02-11T08:05:53.422Z,8.97
2019-02-11T08:08:43.688Z,10.03
2019-02-11T08:11:33.433Z,9.40
2019-02-11T08:14:22.857Z,9.57
2019-02-11T08:17:12.279Z,9.73
2019-02-11T08:20:02.632Z,9.50
2019-02-11T08:22:52.769Z,10.20
2019-02-11T08:25:43.119Z,10.33
2019-02-11T08:28:32.818Z,10.53
2019-02-11T08:31:22.750Z,9.10
2019-02-11T08:34:13.240Z,9.83
2019-02-11T08:37:02.988Z,9.27
2019-02-11T08:39:52.661Z,12.00
2019-02-11T08:42:42.373Z,9.80
2019-02-11T08:45:31.825Z,10.63
2019-02-11T08:48:21.504Z,10.03
2019-02-11T08:51:11.258Z,10.67
2019-02-11T08:54:00.748Z,10.13
2019-02-11T08:56:50.852Z,10.23
2019-02-11T08:59:40.367Z,10.23
2019-02-11T09:02:30.354Z,10.30
2019-02-11T09:05:19.777Z,10.77
2019-02-11T09:08:09.257Z,10.67
2019-02-11T09:10:59.061Z,10.93
2019-02-11T09:13:52.622Z,11.03
2019-02-11T09:16:42.712Z,16.63
2019-02-11T09:19:32.373Z,10.33
2019-02-11T09:22:22.540Z,10.20
2019-02-11T09:25:31.434Z,10.50
2019-02-11T09:28:21.500Z,10.40
2019-02-11T09:31:11.466Z,10.83
2019-02-11T09:34:01.240Z,10.67
2019-02-11T09:36:51.473Z,10.27
2019-02-11T09:39:40.905Z,11.63
2019-02-11T09:42:30.867Z,11.03
2019-02-11T09:45:21.328Z,11.10
2019-02-11T09:48:10.849Z,11.07
2019-02-11T09:51:00.832Z,11.50
2019-02-11T09:54:09.628Z,11.73
2019-02-11T09:56:59.051Z,10.70
2019-02-11T09:59:49.156Z,10.70
2019-02-11T10:02:39.199Z,11.27
2019-02-11T10:05:48.328Z,10.97
2019-02-11T10:08:38.318Z,11.47
2019-02-11T10:11:28.249Z,11.67
2019-02-11T10:14:17.980Z,10.87
2019-02-11T10:17:08.514Z,10.77
2019-02-11T10:19:58.205Z,11.03
2019-02-11T10:22:48.047Z,10.73
2019-02-11T10:25:37.817Z,11.27
2019-02-11T10:28:27.529Z,10.60
2019-02-11T10:31:17.291Z,11.20
2019-02-11T10:34:06.710Z,10.87
2019-02-11T10:36:56.817Z,10.80
2019-02-11T10:39:46.553Z,11.00
2019-02-11T10:42:36.693Z,11.53
2019-02-11T10:45:26.299Z,11.43
2019-02-11T10:48:15.807Z,11.43
2019-02-11T10:51:06.838Z,11.27
2019-02-11T10:53:55.356Z,11.53
2019-02-11T10:56:43.573Z,11.67
2019-02-11T10:59:33.355Z,11.83
2019-02-11T11:02:22.858Z,11.83
2019-02-11T11:05:12.881Z,11.77
2019-02-11T11:08:02.367Z,14.13
2019-02-11T11:11:11.797Z,11.67
2019-02-11T11:14:01.609Z,11.77
2019-02-11T11:16:51.470Z,11.63
2019-02-11T11:19:41.871Z,10.73
2019-02-11T11:22:31.300Z,10.80
2019-02-11T11:25:20.971Z,10.40
2019-02-11T11:28:10.489Z,10.77
2019-02-11T11:31:00.376Z,10.20
2019-02-11T11:33:50.083Z,10.67
2019-02-11T11:36:40.690Z,12.87
2019-02-11T11:39:30.530Z,10.00
2019-02-11T11:42:31.907Z,11.03
2019-02-11T11:45:33.239Z,11.63
2019-02-11T11:48:35.334Z,11.77
2019-02-11T11:51:36.795Z,11.43
2019-02-11T11:54:26.318Z,10.57
2019-02-11T11:57:35.467Z,11.10
2019-02-11T12:00:26.468Z,10.20
2019-02-11T12:03:14.612Z,11.37
2019-02-11T12:06:04.923Z,10.67
2019-02-11T12:08:59.066Z,10.37
2019-02-11T12:11:46.421Z,10.37
2019-02-11T12:14:36.149Z,10.53
2019-02-11T12:17:45.244Z,10.70
2019-02-11T12:20:34.778Z,9.67
2019-02-11T12:23:25.739Z,10.73
2019-02-11T12:29:32.373Z,10.60
2019-02-11T12:32:21.914Z,10.30
2019-02-11T12:35:12.567Z,11.53
2019-02-11T12:38:21.559Z,10.83
2019-02-11T12:41:10.972Z,12.07
2019-02-11T12:44:00.567Z,11.27
2019-02-11T12:46:50.149Z,14.03
2019-02-11T12:49:40.404Z,11.93
2019-02-11T12:52:49.282Z,11.47
2019-02-11T12:55:38.730Z,11.13
2019-02-11T12:58:28.766Z,11.00
2019-02-11T13:01:18.552Z,11.73
2019-02-11T13:04:08.468Z,12.60
2019-02-11T13:06:58.193Z,11.33
2019-02-11T13:09:47.697Z,10.83
2019-02-11T13:12:37.706Z,11.13
2019-02-11T13:15:56.613Z,12.60
2019-02-11T13:18:19.302Z,10.67
2019-02-11T13:21:11.563Z,10.27
2019-02-11T13:24:02.184Z,10.67
2019-02-11T13:26:51.936Z,12.03
2019-02-11T13:29:42.947Z,11.77
2019-02-11T13:32:32.630Z,11.13
2019-02-11T13:35:22.372Z,10.60
2019-02-11T13:38:12.118Z,10.63
2019-02-11T13:41:02.697Z,10.67
2019-02-11T13:44:03.990Z,10.33
2019-02-11T13:46:53.826Z,12.53
2019-02-11T13:49:46.525Z,10.03
2019-02-11T13:52:35.643Z,11.03
2019-02-11T13:55:30.003Z,10.10
2019-02-11T13:58:35.978Z,9.23
2019-02-11T14:01:45.012Z,9.20
2019-02-11T14:04:34.781Z,9.97
2019-02-11T14:07:43.517Z,9.80
2019-02-11T14:10:33.599Z,9.37
2019-02-11T14:14:00.581Z,13.00
2019-02-11T14:16:54.546Z,9.43
2019-02-11T14:22:39.784Z,9.10
2019-02-11T14:25:42.236Z,10.23
2019-02-11T14:28:21.393Z,8.63
2019-02-11T14:31:12.047Z,8.30
2019-02-11T14:34:01.731Z,9.87
2019-02-11T14:36:51.433Z,9.10
2019-02-11T14:39:52.365Z,9.23
2019-02-11T14:43:01.201Z,9.80
2019-02-11T14:45:50.603Z,10.47
2019-02-11T14:48:41.065Z,8.70
2019-02-11T14:51:31.554Z,11.67
2019-02-11T14:54:19.655Z,7.90
2019-02-11T14:57:11.366Z,9.53
2019-02-11T15:00:00.474Z,9.07
2019-02-11T15:02:50.052Z,8.17
2019-02-11T15:05:58.854Z,8.80
2019-02-11T15:08:48.383Z,9.43
2019-02-11T15:11:57.134Z,8.67
2019-02-11T15:14:47.125Z,8.43
2019-02-11T15:17:55.778Z,8.00
2019-02-11T15:20:46.154Z,8.30
2019-02-11T15:26:30.847Z,9.03
2019-02-11T15:29:20.817Z,11.20
2019-02-11T15:32:10.626Z,7.93
2019-02-11T15:35:19.270Z,9.17
2019-02-11T15:38:08.692Z,8.13
2019-02-11T15:40:58.372Z,8.13
2019-02-11T15:43:48.359Z,11.97
2019-02-11T15:46:38.412Z,10.20
2019-02-11T15:49:28.880Z,8.47
2019-02-11T15:52:21.416Z,8.33
2019-02-11T15:55:13.174Z,8.50
2019-02-11T15:58:03.422Z,8.53
2019-02-11T16:00:52.937Z,8.17
2019-02-11T16:03:43.069Z,8.47
2019-02-11T16:06:38.056Z,8.13
2019-02-11T16:09:24.883Z,7.97
2019-02-11T16:12:33.512Z,9.50
2019-02-11T16:15:23.895Z,8.17
2019-02-11T16:18:13.329Z,11.23
2019-02-11T16:21:03.060Z,9.03
2019-02-11T16:24:17.518Z,8.63
2019-02-11T16:27:29.246Z,15.40
2019-02-11T16:30:19.393Z,10.43
2019-02-11T16:33:09.591Z,9.73
2019-02-11T16:35:59.059Z,8.73
2019-02-11T16:38:48.854Z,9.23
2019-02-11T16:41:38.567Z,10.40
2019-02-11T16:44:47.285Z,9.50
2019-02-11T16:47:37.539Z,8.80
2019-02-11T16:50:28.276Z,9.57
2019-02-11T16:53:18.898Z,8.27
2019-02-11T16:56:08.639Z,9.00
2019-02-11T16:58:58.315Z,8.00
2019-02-11T17:01:48.360Z,8.40
2019-02-11T17:04:38.599Z,9.90
2019-02-11T17:07:28.554Z,8.33
2019-02-11T17:10:18.325Z,9.90
2019-02-11T17:13:07.761Z,11.87
2019-02-11T17:15:57.721Z,8.47
2019-02-11T17:18:47.524Z,9.40
2019-02-11T17:21:56.539Z,8.70
2019-02-11T17:24:47.328Z,8.80
2019-02-11T17:27:37.085Z,9.73
2019-02-11T17:30:27.452Z,10.43
2019-02-11T17:33:36.153Z,10.73
2019-02-11T17:36:26.196Z,9.03
2019-02-11T17:39:15.687Z,9.20
2019-02-11T17:42:05.451Z,10.13
2019-02-11T17:44:56.022Z,10.00
2019-02-11T17:47:44.684Z,7.60
2019-02-11T17:50:34.530Z,8.27
2019-02-11T17:53:24.597Z,12.07
2019-02-11T17:56:14.380Z,7.60
2019-02-11T17:59:03.997Z,8.03
2019-02-11T18:01:57.781Z,8.57
2019-02-11T18:04:48.574Z,9.87
2019-02-11T18:08:17.196Z,7.77
2019-02-11T18:11:07.636Z,10.27
2019-02-11T18:13:57.715Z,8.63
2019-02-11T18:16:47.193Z,9.23
2019-02-11T18:19:37.832Z,8.60
2019-02-11T18:22:28.107Z,8.93
2019-02-11T18:25:18.696Z,10.93
2019-02-11T18:28:08.427Z,12.77
2019-02-11T18:30:58.356Z,8.93
2019-02-11T18:33:48.607Z,8.10
2019-02-11T18:36:38.500Z,9.33
2019-02-11T18:39:47.187Z,8.67
2019-02-11T18:42:37.409Z,7.63
2019-02-11T18:45:27.649Z,8.23
2019-02-11T18:48:17.280Z,7.93
2019-02-11T18:51:26.007Z,8.43
2019-02-11T18:54:16.680Z,10.00
2019-02-11T18:57:06.393Z,7.73
2019-02-11T18:59:55.821Z,8.23
2019-02-11T19:02:45.602Z,7.10
2019-02-11T19:05:35.127Z,8.43
2019-02-11T19:08:24.672Z,7.93
2019-02-11T19:11:14.514Z,7.70
2019-02-11T19:14:04.393Z,7.63
2019-02-11T19:16:54.132Z,9.17
2019-02-11T19:19:43.853Z,8.43
2019-02-11T19:22:34.119Z,7.87
2019-02-11T19:25:23.849Z,8.50
2019-02-11T19:28:13.898Z,9.07
2019-02-11T19:31:04.037Z,9.10
2019-02-11T19:33:53.889Z,9.27
2019-02-11T19:37:02.648Z,9.00
2019-02-11T19:39:52.808Z,10.77
2019-02-11T19:42:42.869Z,9.27
2019-02-11T19:45:32.702Z,9.67
2019-02-11T19:48:23.002Z,10.77
2019-02-11T19:51:25.318Z,11.63
2019-02-11T19:54:04.804Z,8.60
2019-02-11T19:56:54.525Z,9.00
2019-02-11T19:59:44.745Z,9.40
2019-02-11T20:03:15.665Z,9.27
2019-02-11T20:06:06.426Z,9.33
2019-02-11T20:08:56.280Z,9.57
2019-02-11T20:11:46.073Z,11.10
2019-02-11T20:14:36.080Z,13.17
2019-02-11T20:17:26.489Z,9.60
2019-02-11T20:20:18.392Z,9.67
2019-02-11T20:23:08.438Z,9.70
2019-02-11T20:25:58.403Z,9.70
2019-02-11T20:28:49.157Z,9.40
2019-02-11T20:31:39.295Z,10.40
2019-02-11T20:34:29.491Z,12.43
2019-02-11T20:37:19.834Z,12.23
2019-02-11T20:40:11.759Z,9.13
2019-02-11T20:43:02.038Z,10.07
2019-02-11T20:45:52.503Z,9.27
2019-02-11T20:49:01.439Z,9.73
2019-02-11T20:51:51.514Z,9.70
2019-02-11T20:54:41.203Z,9.83
2019-02-11T20:57:30.942Z,10.40
2019-02-11T21:00:22.268Z,10.23
2019-02-11T21:03:12.070Z,9.30
2019-02-11T21:06:02.466Z,10.40
2019-02-11T21:08:53.573Z,11.33
2019-02-11T21:11:43.506Z,10.17
2019-02-11T21:14:34.086Z,10.80
2019-02-11T21:17:24.165Z,9.73
2019-02-11T21:20:32.480Z,9.50
2019-02-11T21:23:41.389Z,9.97
2019-02-11T21:26:31.091Z,8.83
2019-02-11T21:29:39.996Z,8.50
2019-02-11T21:32:29.904Z,9.03
2019-02-11T21:35:20.400Z,8.67
2019-02-11T21:38:10.254Z,8.60
2019-02-11T21:41:00.743Z,8.97
2019-02-11T21:44:09.405Z,9.70
2019-02-11T21:46:59.360Z,9.70
2019-02-11T21:50:09.068Z,10.73
2019-02-11T21:53:01.151Z,11.03
2019-02-11T21:55:50.830Z,11.07
2019-02-11T21:58:40.854Z,10.90
2019-02-11T22:01:31.011Z,12.20
2019-02-11T22:04:20.703Z,9.80
2019-02-11T22:07:11.043Z,11.57
2019-02-11T22:10:00.848Z,8.50
2019-02-11T22:12:50.687Z,7.57
2019-02-11T22:15:40.197Z,7.53
2019-02-11T22:18:30.136Z,7.77
2019-02-11T22:21:39.045Z,7.37
2019-02-11T22:24:28.944Z,7.40
2019-02-11T22:27:18.408Z,7.23
2019-02-11T22:30:10.781Z,7.53
2019-02-11T22:33:00.804Z,6.73
2019-02-11T22:35:50.323Z,7.50
2019-02-11T22:38:40.268Z,7.40
2019-02-11T22:41:29.959Z,8.73
2019-02-11T22:44:19.412Z,8.80
2019-02-11T22:47:08.924Z,10.33
2019-02-11T22:49:59.309Z,10.57
2019-02-11T22:52:49.562Z,10.27
2019-02-11T22:55:39.324Z,10.47
2019-02-11T22:58:28.787Z,11.93
2019-02-11T23:04:34.102Z,11.67
2019-02-11T23:07:23.834Z,11.80
2019-02-11T23:10:13.461Z,11.93
2019-02-11T23:13:03.244Z,12.90
2019-02-11T23:15:52.954Z,15.73
2019-02-11T23:18:42.426Z,12.83
2019-02-11T23:21:32.928Z,12.13
2019-02-11T23:24:22.877Z,11.77
2019-02-11T23:27:13.078Z,13.13
2019-02-11T23:30:03.020Z,14.43
2019-02-11T23:32:52.557Z,12.57
2019-02-11T23:35:42.319Z,11.93
2019-02-11T23:38:32.378Z,15.03
2019-02-11T23:41:22.857Z,12.60
2019-02-11T23:44:12.382Z,12.73
2019-02-11T23:47:02.580Z,13.43
2019-02-11T23:49:52.072Z,12.80
2019-02-11T23:52:41.777Z,15.47
2019-02-11T23:55:31.735Z,13.27
2019-02-11T23:58:21.527Z,12.23
